Time;durP1;ratioP1;P1;durP2;ratioP2;P2;SDS_P1;SDS_P2;PMS_P1;PMS_P2;Temp;Humidity;BMP_temperature;BMP_pressure;BME280_temperature;BME280_humidity;BME280_pressure;Samples;Min_cycle;Max_cycle;Signal;HPM_P1;HPM_P2
2023/03/23 00:01:50;;;;;;;2.30;2.10;;;;;;;14.68;46.26;95133.63;6128751;23;20194;-86
2023/03/23 00:04:16;;;;;;;2.22;2.03;;;;;;;14.72;46.05;95136.59;6129673;23;20176;-85
2023/03/23 00:06:45;;;;;;;3.92;2.70;;;;;;;14.72;46.03;95132.22;6129435;23;20519;-86
2023/03/23 00:09:12;;;;;;;4.10;2.38;;;;;;;14.67;46.41;95139.81;6129396;23;20242;-85
2023/03/23 00:11:39;;;;;;;2.38;2.17;;;;;;;14.59;46.65;95137.50;6129173;23;20179;-86
2023/03/23 00:14:06;;;;;;;2.85;2.17;;;;;;;14.50;46.73;95129.19;6129304;23;20199;-86
2023/03/23 00:16:37;;;;;;;2.97;2.67;;;;;;;14.47;46.43;95132.22;6128909;23;20372;-86
2023/03/23 00:19:07;;;;;;;2.97;2.30;;;;;;;14.43;46.73;95128.44;6130621;23;20187;-85
2023/03/23 00:21:35;;;;;;;2.25;2.05;;;;;;;14.43;46.58;95128.44;6129974;23;20179;-86
2023/03/23 00:24:04;;;;;;;2.40;2.13;;;;;;;14.52;46.78;95134.97;6129368;23;20521;-85
2023/03/23 00:26:33;;;;;;;4.80;2.30;;;;;;;14.52;46.71;95134.97;6129532;23;20247;-85
2023/03/23 00:29:00;;;;;;;4.05;2.20;;;;;;;14.57;46.44;95129.16;6130055;23;20196;-85
2023/03/23 00:31:31;;;;;;;2.20;2.00;;;;;;;14.50;46.42;95126.63;6128583;23;20179;-86
2023/03/23 00:33:58;;;;;;;2.40;2.10;;;;;;;14.49;46.61;95127.63;6128118;23;20184;-85
2023/03/23 00:36:26;;;;;;;2.05;1.90;;;;;;;14.41;47.21;95127.09;6128409;23;20689;-85
2023/03/23 00:38:52;;;;;;;2.15;1.95;;;;;;;14.36;47.36;95126.91;6128228;23;20207;-86
2023/03/23 00:41:18;;;;;;;2.25;2.05;;;;;;;14.39;47.15;95131.66;6127895;23;20175;-85
2023/03/23 00:43:45;;;;;;;2.22;2.00;;;;;;;14.43;46.87;95128.44;6129348;23;20183;-84
2023/03/23 00:46:11;;;;;;;2.35;2.10;;;;;;;14.40;46.89;95131.50;6129099;23;20205;-85
2023/03/23 00:48:40;;;;;;;3.75;2.20;;;;;;;14.43;47.11;95125.84;6128619;23;20199;-86
2023/03/23 00:51:11;;;;;;;5.30;3.10;;;;;;;14.43;46.94;95132.88;6129473;23;20203;-86
2023/03/23 00:53:40;;;;;;;2.25;2.03;;;;;;;14.42;47.13;95124.31;6129452;23;20180;-87
2023/03/23 00:56:08;;;;;;;2.30;2.00;;;;;;;14.39;47.36;95129.06;6129302;23;20203;-86
2023/03/23 00:58:34;;;;;;;2.10;2.00;;;;;;;14.41;47.13;95129.69;6128917;23;20199;-87
2023/03/23 01:01:01;;;;;;;3.85;2.30;;;;;;;14.40;47.21;95122.88;6128480;23;20235;-85
2023/03/23 01:03:27;;;;;;;3.47;2.50;;;;;;;14.39;47.09;95119.50;6128027;23;20183;-87
2023/03/23 01:05:55;;;;;;;2.85;2.63;;;;;;;14.37;47.53;95115.53;6128521;23;20575;-85
2023/03/23 01:08:23;;;;;;;3.38;2.20;;;;;;;14.30;47.77;95120.75;6129086;23;20203;-87
2023/03/23 01:10:51;;;;;;;3.00;2.03;;;;;;;14.30;47.78;95118.16;6128631;23;20206;-85
2023/03/23 01:13:18;;;;;;;2.40;2.20;;;;;;;14.33;47.34;95115.16;6127123;23;20179;-85
2023/03/23 01:15:44;;;;;;;2.72;2.10;;;;;;;14.35;47.88;95120.13;6128306;23;20203;-86
2023/03/23 01:18:11;;;;;;;2.40;2.20;;;;;;;14.26;48.08;95111.81;6128387;23;20208;-85
2023/03/23 01:20:38;;;;;;;1.88;1.77;;;;;;;14.34;47.96;95114.16;6128517;23;20183;-85
2023/03/23 01:23:05;;;;;;;2.20;2.00;;;;;;;14.37;47.90;95120.72;6128979;23;20184;-85
2023/03/23 01:25:36;;;;;;;3.63;1.95;;;;;;;14.35;48.29;95118.34;6127817;23;20428;-85
2023/03/23 01:28:04;;;;;;;2.28;2.08;;;;;;;14.34;48.10;95113.38;6127617;23;20195;-86
2023/03/23 01:30:30;;;;;;;4.65;2.10;;;;;;;14.30;48.00;95117.38;6129122;23;20178;-85
2023/03/23 01:32:57;;;;;;;2.67;1.95;;;;;;;14.32;48.31;95110.19;6128458;23;20183;-86
2023/03/23 01:35:23;;;;;;;2.20;2.00;;;;;;;14.31;48.01;95108.59;6128599;23;20234;-85
2023/03/23 01:37:50;;;;;;;3.10;1.83;;;;;;;14.32;48.31;95105.00;6128581;23;20202;-85
2023/03/23 01:40:16;;;;;;;2.50;1.73;;;;;;;14.28;48.26;95109.81;6128599;23;20183;-85
2023/03/23 01:42:43;;;;;;;2.53;2.13;;;;;;;14.30;48.33;95102.63;6127824;23;20180;-85
2023/03/23 01:45:34;;;;;;;2.05;1.80;;;;;;;14.32;48.62;95105.81;6128554;23;20792;-85
2023/03/23 01:48:12;;;;;;;1.92;1.80;;;;;;;14.32;48.55;95108.41;6128173;23;20199;-87
2023/03/23 01:50:47;;;;;;;1.80;1.70;;;;;;;14.30;48.31;95119.97;6128496;23;20164;-85
2023/03/23 01:53:13;;;;;;;2.03;1.77;;;;;;;14.29;48.44;95111.41;6127820;23;20202;-85
2023/03/23 01:55:42;;;;;;;2.80;2.00;;;;;;;14.21;48.59;95109.09;6128180;23;20199;-86
2023/03/23 01:58:10;;;;;;;2.63;2.10;;;;;;;14.21;48.26;95109.09;6127533;23;20195;-86
2023/03/23 02:00:40;;;;;;;2.22;2.03;;;;;;;14.13;49.02;95107.53;6127742;23;20654;-85
2023/03/23 02:03:10;;;;;;;2.40;2.10;;;;;;;14.11;48.51;95112.13;6128695;23;20163;-85
2023/03/23 02:05:39;;;;;;;2.08;1.90;;;;;;;14.02;49.18;95107.44;6127557;23;20184;-85
2023/03/23 02:08:08;;;;;;;2.42;2.00;;;;;;;13.92;49.35;95099.31;6128644;23;20203;-87
2023/03/23 02:10:35;;;;;;;3.22;2.03;;;;;;;13.89;49.32;95095.34;6130729;23;20183;-86
2023/03/23 02:13:05;;;;;;;4.90;2.43;;;;;;;13.92;49.56;95097.53;6130603;23;20187;-86
2023/03/23 02:15:44;;;;;;;2.40;2.20;;;;;;;13.94;49.67;95092.94;6130500;23;20254;-85
2023/03/23 02:18:23;;;;;;;2.30;2.10;;;;;;;13.94;49.99;95092.94;6130766;23;20199;-86
2023/03/23 02:21:08;;;;;;;2.00;1.80;;;;;;;13.91;50.12;95095.94;6131181;23;20220;-86
2023/03/23 02:23:54;;;;;;;3.60;2.00;;;;;;;13.94;50.20;95089.56;6130260;23;20195;-86
2023/03/23 02:26:33;;;;;;;2.30;2.10;;;;;;;14.00;50.15;95084.34;6133167;23;20238;-85
2023/03/23 02:29:30;;;;;;;2.40;2.20;;;;;;;14.00;50.62;95084.34;6127181;23;20202;-85
2023/03/23 02:32:09;;;;;;;3.05;1.98;;;;;;;13.92;50.01;95084.59;6124548;23;20695;-85
2023/03/23 02:34:42;;;;;;;2.97;2.05;;;;;;;13.89;50.01;95092.75;6124189;23;20184;-85
2023/03/23 02:37:13;;;;;;;2.30;2.10;;;;;;;13.94;49.99;95090.34;6122380;23;20195;-85
2023/03/23 02:39:45;;;;;;;2.45;2.13;;;;;;;13.98;50.29;95080.38;6123178;23;20716;-85
2023/03/23 02:42:15;;;;;;;2.10;1.90;;;;;;;14.04;50.06;95088.09;6123510;23;20827;-85
2023/03/23 02:44:44;;;;;;;6.13;2.17;;;;;;;14.04;50.29;95088.09;6123780;23;20230;-85
2023/03/23 02:47:15;;;;;;;2.67;2.00;;;;;;;14.05;50.03;95088.88;6123089;23;20223;-85
2023/03/23 02:49:47;;;;;;;2.72;2.20;;;;;;;14.12;49.60;95085.25;6122920;23;20171;-85
2023/03/23 02:52:18;;;;;;;2.55;2.35;;;;;;;14.13;49.76;95083.44;6122821;23;20552;-85
2023/03/23 02:54:47;;;;;;;3.53;2.00;;;;;;;14.13;49.47;95075.69;6122961;23;20184;-85
2023/03/23 02:57:14;;;;;;;3.55;1.88;;;;;;;14.15;49.62;95081.44;6123333;23;20196;-85
2023/03/23 02:59:45;;;;;;;2.45;1.80;;;;;;;14.15;49.88;95082.22;6123185;23;20176;-85
2023/03/23 03:02:15;;;;;;;2.38;1.90;;;;;;;14.13;50.40;95078.25;6124137;23;20164;-85
2023/03/23 03:04:49;;;;;;;3.50;2.30;;;;;;;14.12;50.29;95079.28;6124631;23;20588;-85
2023/03/23 03:07:36;;;;;;;3.65;1.80;;;;;;;14.11;50.24;95082.84;6124750;23;20384;-85
2023/03/23 03:10:07;;;;;;;3.72;2.33;;;;;;;14.01;50.29;95082.53;6124724;23;20159;-86
2023/03/23 03:12:40;;;;;;;3.05;2.00;;;;;;;13.95;49.99;95076.41;6124027;23;20164;-85
2023/03/23 03:15:21;;;;;;;2.05;1.88;;;;;;;13.98;50.45;95070.81;6124169;23;20211;-86
2023/03/23 03:17:54;;;;;;;2.15;1.95;;;;;;;14.02;50.36;95069.41;6124738;23;20200;-85
2023/03/23 03:20:25;;;;;;;3.70;1.98;;;;;;;14.04;50.19;95066.59;6124737;23;20195;-85
2023/03/23 03:22:52;;;;;;;2.90;2.05;;;;;;;14.09;50.03;95070.13;6124884;23;20171;-85
2023/03/23 03:25:20;;;;;;;3.25;2.00;;;;;;;14.06;50.52;95067.16;6124565;23;20179;-85
2023/03/23 03:27:52;;;;;;;1.92;1.77;;;;;;;14.04;50.00;95066.59;6124666;23;20199;-86
2023/03/23 03:30:24;;;;;;;1.85;1.75;;;;;;;14.05;50.27;95070.75;6124530;23;20406;-85
2023/03/23 03:32:54;;;;;;;1.70;1.60;;;;;;;14.08;49.91;95068.53;6124991;23;20223;-85
2023/03/23 03:35:24;;;;;;;2.40;1.88;;;;;;;14.08;50.02;95073.72;6124161;23;20191;-85
2023/03/23 03:37:50;;;;;;;5.13;2.05;;;;;;;14.10;50.08;95081.28;6124218;23;20202;-86
2023/03/23 03:40:20;;;;;;;2.45;1.80;;;;;;;14.07;50.26;95079.88;6123750;23;20180;-85
2023/03/23 03:42:46;;;;;;;2.22;1.92;;;;;;;14.08;49.89;95078.88;6124916;23;20187;-85
2023/03/23 03:45:16;;;;;;;2.20;2.05;;;;;;;14.12;50.14;95081.84;6125008;23;20187;-85
2023/03/23 03:47:43;;;;;;;2.50;1.90;;;;;;;14.13;49.96;95081.66;6125049;23;20227;-85
2023/03/23 03:50:10;;;;;;;3.10;1.70;;;;;;;14.14;49.88;95085.81;6124421;23;20179;-85
2023/03/23 03:52:39;;;;;;;2.50;1.98;;;;;;;14.16;50.07;95090.78;6124777;23;20187;-85
2023/03/23 03:55:07;;;;;;;2.03;1.83;;;;;;;14.14;50.05;95090.22;6125062;23;20203;-85
2023/03/23 03:57:34;;;;;;;2.13;1.77;;;;;;;14.13;50.32;95086.81;6125765;23;20229;-85
2023/03/23 04:00:04;;;;;;;2.67;1.95;;;;;;;14.01;50.36;95101.47;6125192;23;20202;-85
2023/03/23 04:02:30;;;;;;;2.30;2.00;;;;;;;13.98;50.21;95104.47;6125127;23;20676;-85
2023/03/23 04:04:57;;;;;;;8.27;2.00;;;;;;;13.99;50.04;95095.69;6125383;23;20187;-85
2023/03/23 04:07:26;;;;;;;2.22;1.90;;;;;;;13.99;50.52;95100.06;6124687;23;20265;-85
2023/03/23 04:09:54;;;;;;;2.28;1.77;;;;;;;13.98;50.04;95101.06;6125211;23;20179;-85
2023/03/23 04:12:21;;;;;;;1.90;1.80;;;;;;;13.94;50.98;95103.28;6124867;23;20180;-85
2023/03/23 04:14:47;;;;;;;2.75;1.67;;;;;;;13.96;50.93;95106.47;6125273;23;20371;-85
2023/03/23 04:17:14;;;;;;;3.40;1.75;;;;;;;14.03;50.58;95109.03;6124906;23;20206;-85
2023/03/23 04:19:41;;;;;;;2.72;1.70;;;;;;;14.00;50.77;95105.03;6125042;23;20226;-85
2023/03/23 04:22:07;;;;;;;2.38;1.90;;;;;;;13.94;50.60;95108.47;6124657;23;20183;-86
2023/03/23 04:24:35;;;;;;;1.80;1.70;;;;;;;13.95;50.84;95109.25;6125613;23;20508;-86
2023/03/23 04:27:03;;;;;;;2.22;1.75;;;;;;;13.97;50.59;95107.25;6125461;23;20639;-85
2023/03/23 04:29:30;;;;;;;3.87;1.87;;;;;;;13.99;50.64;95115.59;6125461;23;20207;-85
2023/03/23 04:31:56;;;;;;;2.90;1.92;;;;;;;13.95;51.08;95109.25;6125532;23;20185;-86
2023/03/23 04:34:23;;;;;;;3.30;1.98;;;;;;;13.89;51.00;95116.06;6125849;23;20207;-85
2023/03/23 04:36:50;;;;;;;2.95;1.90;;;;;;;13.90;51.08;95119.44;6125489;23;20203;-85
2023/03/23 04:39:17;;;;;;;1.92;1.60;;;;;;;13.91;50.99;95121.81;6126083;23;20211;-85
2023/03/23 04:41:45;;;;;;;3.40;1.83;;;;;;;13.92;50.88;95120.03;6125947;23;20179;-85
2023/03/23 04:44:17;;;;;;;2.20;1.77;;;;;;;13.88;51.33;95119.63;6125006;23;20184;-85
2023/03/23 04:46:49;;;;;;;1.95;1.60;;;;;;;13.80;51.53;95114.72;6125666;23;20164;-85
2023/03/23 04:49:20;;;;;;;1.90;1.80;;;;;;;13.85;51.34;95112.31;6125163;23;20612;-86
2023/03/23 04:51:47;;;;;;;2.53;1.52;;;;;;;13.83;51.35;95106.56;6124891;23;20700;-85
2023/03/23 04:54:14;;;;;;;2.50;1.80;;;;;;;13.81;51.62;95119.69;6125909;23;20180;-85
2023/03/23 04:56:41;;;;;;;2.00;1.90;;;;;;;13.84;51.47;95123.66;6124955;23;20230;-85
2023/03/23 04:59:07;;;;;;;3.50;1.77;;;;;;;13.87;51.81;95119.84;6125800;23;20807;-86
2023/03/23 05:01:36;;;;;;;1.90;1.80;;;;;;;13.91;51.47;95116.63;6126219;23;20205;-85
2023/03/23 05:04:03;;;;;;;1.80;1.70;;;;;;;13.88;51.41;95117.06;6127203;23;20189;-85
2023/03/23 05:06:29;;;;;;;3.67;2.05;;;;;;;13.85;51.59;95119.28;6127813;23;20635;-86
2023/03/23 05:08:56;;;;;;;5.18;2.05;;;;;;;13.78;51.82;95122.69;6127466;23;20197;-86
2023/03/23 05:11:22;;;;;;;4.45;2.05;;;;;;;13.81;52.00;95118.91;6125318;23;20187;-85
2023/03/23 05:13:49;;;;;;;3.80;2.20;;;;;;;13.87;51.29;95125.81;6128195;23;20524;-85
2023/03/23 05:16:15;;;;;;;3.63;1.90;;;;;;;13.89;51.46;95123.81;6127669;23;20196;-85
2023/03/23 05:18:43;;;;;;;2.10;1.90;;;;;;;13.89;51.58;95125.59;6128096;23;20199;-85
2023/03/23 05:21:10;;;;;;;2.00;1.70;;;;;;;13.94;51.96;95125.78;6127141;23;20182;-86
2023/03/23 05:23:36;;;;;;;1.90;1.80;;;;;;;13.94;51.73;95130.97;6128448;23;20273;-86
2023/03/23 05:26:03;;;;;;;2.13;1.92;;;;;;;13.92;51.54;95138.94;6128635;23;20194;-86
2023/03/23 05:28:30;;;;;;;1.80;1.70;;;;;;;13.90;51.76;95138.34;6127339;23;20207;-85
2023/03/23 05:30:57;;;;;;;3.03;1.83;;;;;;;13.89;51.58;95147.09;6127380;23;20643;-85
2023/03/23 05:33:23;;;;;;;1.90;1.60;;;;;;;13.88;52.23;95147.31;6129328;23;20180;-87
2023/03/23 05:35:51;;;;;;;2.75;1.85;;;;;;;13.88;51.79;95144.72;6128499;23;20671;-86
2023/03/23 05:38:18;;;;;;;2.85;1.60;;;;;;;13.87;52.01;95143.94;6127118;23;20226;-86
2023/03/23 05:40:44;;;;;;;1.88;1.77;;;;;;;13.87;52.28;95143.94;6128656;23;20847;-86
2023/03/23 05:43:11;;;;;;;2.83;1.90;;;;;;;13.91;52.04;95142.50;6128710;23;20175;-87
2023/03/23 05:45:38;;;;;;;3.65;1.88;;;;;;;13.91;52.27;95132.16;6127978;23;20175;-87
2023/03/23 05:48:05;;;;;;;2.05;1.85;;;;;;;13.88;52.04;95126.59;6127466;23;20258;-86
2023/03/23 05:50:31;;;;;;;3.28;2.08;;;;;;;13.70;52.73;95102.22;6128110;23;20182;-86
2023/03/23 05:53:00;;;;;;;3.97;2.03;;;;;;;13.52;53.09;95098.75;6127307;23;20191;-85
2023/03/23 05:55:26;;;;;;;2.77;1.90;;;;;;;13.36;53.88;95087.88;6121838;23;20202;-85
2023/03/23 05:57:53;;;;;;;4.77;1.87;;;;;;;13.39;53.56;95079.72;6125062;23;20205;-86
2023/03/23 06:00:23;;;;;;;2.92;1.80;;;;;;;13.35;53.91;95078.53;6125632;23;20186;-86
2023/03/23 06:02:50;;;;;;;2.10;1.70;;;;;;;13.42;53.80;95076.72;6126938;23;20179;-86
2023/03/23 06:05:17;;;;;;;3.30;1.90;;;;;;;13.42;53.60;95079.31;6126054;23;20616;-86
2023/03/23 06:07:44;;;;;;;2.80;2.00;;;;;;;13.36;53.73;95069.78;6126473;23;20296;-86
2023/03/23 06:10:11;;;;;;;1.80;1.70;;;;;;;13.36;53.77;95071.56;6126498;23;20176;-86
2023/03/23 06:12:39;;;;;;;2.03;1.80;;;;;;;13.38;53.44;95082.50;6127544;23;20253;-86
2023/03/23 06:15:07;;;;;;;3.28;2.17;;;;;;;13.40;53.72;95083.88;6127578;23;20182;-86
2023/03/23 06:17:34;;;;;;;2.80;2.10;;;;;;;13.47;53.25;95089.00;6128337;23;20579;-85
2023/03/23 06:20:01;;;;;;;2.90;1.80;;;;;;;13.49;53.32;95098.16;6127055;23;20179;-87
2023/03/23 06:22:29;;;;;;;4.70;2.08;;;;;;;13.60;53.45;95111.44;6128436;23;20179;-87
2023/03/23 06:24:56;;;;;;;4.93;2.20;;;;;;;13.59;53.27;95121.00;6126864;23;20188;-86
2023/03/23 06:27:25;;;;;;;3.43;2.23;;;;;;;13.61;53.27;95111.25;6127491;23;20222;-86
2023/03/23 06:29:51;;;;;;;4.73;2.13;;;;;;;13.66;53.12;95118.38;6127088;23;20186;-88
2023/03/23 06:32:17;;;;;;;4.05;2.33;;;;;;;13.69;53.15;95117.94;6127474;23;20188;-86
2023/03/23 06:34:46;;;;;;;4.15;2.20;;;;;;;13.60;53.07;95112.25;6127559;23;20180;-87
2023/03/23 06:37:12;;;;;;;2.03;1.80;;;;;;;13.66;53.07;95103.63;6129382;23;20227;-87
2023/03/23 06:39:39;;;;;;;3.50;2.20;;;;;;;13.70;53.05;95099.63;6129934;23;20182;-87
2023/03/23 06:42:06;;;;;;;2.22;2.03;;;;;;;13.72;52.62;95091.66;6131579;23;20182;-85
2023/03/23 06:44:33;;;;;;;2.40;2.20;;;;;;;13.75;52.50;95089.47;6131702;23;20187;-86
2023/03/23 06:47:00;;;;;;;2.43;2.17;;;;;;;13.85;52.35;95089.03;6131316;23;20183;-86
2023/03/23 06:49:27;;;;;;;2.67;2.30;;;;;;;13.85;52.42;95083.84;6130748;23;20180;-88
2023/03/23 06:51:53;;;;;;;2.40;2.20;;;;;;;13.86;52.30;95082.81;6129786;23;20206;-85
2023/03/23 06:54:21;;;;;;;3.90;2.50;;;;;;;13.92;52.73;95087.16;6126578;23;20186;-86
2023/03/23 06:56:48;;;;;;;2.75;1.92;;;;;;;13.91;52.32;95072.63;6128851;23;20203;-87
2023/03/23 06:59:14;;;;;;;2.28;1.95;;;;;;;14.00;52.20;95068.00;6128581;23;20187;-86
2023/03/23 07:01:42;;;;;;;4.28;2.20;;;;;;;14.05;52.21;95062.97;6130624;23;20183;-86
2023/03/23 07:04:10;;;;;;;4.88;2.17;;;;;;;14.13;52.05;95078.25;6131135;23;20199;-86
2023/03/23 07:06:37;;;;;;;3.40;2.60;;;;;;;14.15;51.57;95071.88;6130963;23;20711;-86
2023/03/23 07:09:04;;;;;;;3.42;2.33;;;;;;;14.28;51.45;95077.94;6132589;23;20504;-86
2023/03/23 07:11:30;;;;;;;5.07;2.15;;;;;;;14.31;51.02;95080.91;6131540;23;20183;-87
2023/03/23 07:13:57;;;;;;;4.22;2.25;;;;;;;14.41;51.07;95085.66;6132226;23;20184;-88
2023/03/23 07:16:24;;;;;;;4.38;2.35;;;;;;;14.45;50.71;95091.97;6130256;23;20226;-87
2023/03/23 07:18:51;;;;;;;2.90;2.40;;;;;;;14.60;50.89;95091.69;6130153;23;20207;-86
2023/03/23 07:21:18;;;;;;;9.20;2.17;;;;;;;14.69;50.89;95100.75;6132263;23;20176;-86
2023/03/23 07:23:46;;;;;;;6.07;2.65;;;;;;;14.77;50.42;95096.09;6132521;23;20179;-86
2023/03/23 07:26:13;;;;;;;2.53;2.28;;;;;;;14.81;50.10;95094.66;6131651;23;20554;-87
2023/03/23 07:28:40;;;;;;;9.43;6.20;;;;;;;14.96;50.34;95086.53;6130513;23;20199;-86
2023/03/23 07:31:08;;;;;;;6.93;3.08;;;;;;;15.17;49.82;95093.88;6130847;23;20183;-86
2023/03/23 07:33:35;;;;;;;2.65;2.20;;;;;;;15.26;49.32;95088.38;6130432;23;20752;-87
2023/03/23 07:36:04;;;;;;;3.40;2.25;;;;;;;15.52;49.11;95088.06;6128294;23;20199;-86
2023/03/23 07:38:30;;;;;;;4.03;2.20;;;;;;;15.67;48.72;95096.28;6126443;23;20207;-86
2023/03/23 07:40:57;;;;;;;5.65;2.35;;;;;;;15.75;48.32;95095.19;6127152;23;20175;-86
2023/03/23 07:43:24;;;;;;;5.25;2.10;;;;;;;15.84;47.72;95088.66;6127390;23;20183;-86
2023/03/23 07:45:50;;;;;;;2.92;2.35;;;;;;;16.14;47.36;95080.84;6127097;23;20172;-86
2023/03/23 07:48:17;;;;;;;2.50;2.30;;;;;;;16.37;46.77;95075.69;6127929;23;20200;-86
2023/03/23 07:50:49;;;;;;;5.72;2.60;;;;;;;16.46;47.13;95084.72;6128672;23;20554;-89
2023/03/23 07:53:16;;;;;;;3.80;2.38;;;;;;;16.39;46.81;95073.66;6130461;23;20173;-87
2023/03/23 07:55:43;;;;;;;3.53;2.15;;;;;;;16.29;46.56;95078.63;6130059;23;20560;-87
2023/03/23 07:58:16;;;;;;;5.05;2.30;;;;;;;16.22;46.92;95080.53;6127463;23;20199;-86
2023/03/23 08:00:43;;;;;;;4.00;1.98;;;;;;;16.17;47.08;95077.78;6127577;23;20164;-87
2023/03/23 08:03:10;;;;;;;2.35;2.00;;;;;;;16.06;47.00;95081.16;6125859;23;20231;-86
2023/03/23 08:05:36;;;;;;;4.70;2.00;;;;;;;16.07;47.44;95080.16;6129236;23;20186;-86
2023/03/23 08:08:03;;;;;;;5.25;2.33;;;;;;;16.06;47.37;95081.97;6126881;23;20203;-86
2023/03/23 08:10:32;;;;;;;2.15;1.80;;;;;;;16.13;47.38;95072.28;6127847;23;20212;-86
2023/03/23 08:12:59;;;;;;;2.45;1.73;;;;;;;16.18;47.06;95076.78;6128321;23;20183;-86
2023/03/23 08:15:27;;;;;;;4.90;2.40;;;;;;;16.19;46.80;95075.75;6129528;23;20180;-86
2023/03/23 08:17:54;;;;;;;2.60;1.90;;;;;;;16.07;46.43;95078.34;6127110;23;20203;-87
2023/03/23 08:20:20;;;;;;;6.80;2.30;;;;;;;16.17;46.79;95080.38;6127211;23;20234;-87
2023/03/23 08:22:52;;;;;;;4.07;2.00;;;;;;;16.16;46.73;95079.59;6128245;23;20190;-86
2023/03/23 08:25:19;;;;;;;5.60;2.15;;;;;;;16.18;46.56;95087.16;6127089;23;20190;-86
2023/03/23 08:27:46;;;;;;;7.43;2.05;;;;;;;16.15;46.94;95090.25;6127507;23;20547;-87
2023/03/23 08:30:16;;;;;;;2.78;2.20;;;;;;;16.17;46.66;95094.16;6126342;23;20811;-87
2023/03/23 08:32:42;;;;;;;4.45;1.95;;;;;;;16.23;46.77;95095.88;6127079;23;20180;-87
2023/03/23 08:35:10;;;;;;;5.03;2.13;;;;;;;16.22;46.33;95093.50;6129120;23;20183;-87
2023/03/23 08:37:38;;;;;;;2.30;1.90;;;;;;;16.20;46.30;95095.53;6126053;23;20203;-86
2023/03/23 08:40:09;;;;;;;6.10;2.30;;;;;;;16.22;46.20;95094.28;6127898;23;20702;-86
2023/03/23 08:42:37;;;;;;;3.33;1.88;;;;;;;16.29;46.08;95103.81;6128846;23;20199;-86
2023/03/23 08:45:08;;;;;;;1.77;1.67;;;;;;;16.35;46.05;95103.72;6127633;23;20179;-86
2023/03/23 08:47:35;;;;;;;2.67;2.05;;;;;;;16.37;45.97;95108.66;6128785;23;20195;-86
2023/03/23 08:50:02;;;;;;;1.98;1.88;;;;;;;16.46;45.69;95109.94;6128758;23;20235;-86
2023/03/23 08:52:29;;;;;;;2.58;2.10;;;;;;;16.57;45.67;95116.94;6130686;23;20227;-86
2023/03/23 08:54:56;;;;;;;2.67;2.20;;;;;;;16.68;45.45;95120.59;6130662;23;20199;-86
2023/03/23 08:57:24;;;;;;;6.70;2.20;;;;;;;16.79;45.79;95119.81;6130519;23;20199;-86
2023/03/23 08:59:51;;;;;;;3.22;1.90;;;;;;;16.82;45.74;95120.16;6127872;23;20180;-86
2023/03/23 09:02:23;;;;;;;2.30;2.05;;;;;;;16.92;45.06;95123.00;6127486;23;20187;-87
2023/03/23 09:04:50;;;;;;;2.05;1.77;;;;;;;17.12;45.52;95120.03;6129496;23;20163;-87
2023/03/23 09:07:16;;;;;;;3.67;2.20;;;;;;;17.33;45.38;95125.63;6130206;23;20204;-85
2023/03/23 09:09:43;;;;;;;2.88;1.70;;;;;;;17.48;44.69;95123.34;6131591;23;20175;-86
2023/03/23 09:12:10;;;;;;;1.80;1.70;;;;;;;17.52;44.53;95134.88;6130678;23;20176;-87
2023/03/23 09:14:37;;;;;;;7.47;2.00;;;;;;;17.58;44.79;95133.94;6129784;23;20182;-86
2023/03/23 09:17:04;;;;;;;2.45;1.73;;;;;;;17.56;44.48;95139.38;6129613;23;20226;-87
2023/03/23 09:19:34;;;;;;;2.85;1.95;;;;;;;17.48;44.40;95136.38;6131440;23;20182;-86
2023/03/23 09:22:03;;;;;;;3.97;1.70;;;;;;;17.46;44.58;95141.81;6130856;23;20185;-87
2023/03/23 09:24:30;;;;;;;3.65;1.77;;;;;;;17.52;44.82;95147.88;6132323;23;20198;-86
2023/03/23 09:26:58;;;;;;;2.30;1.90;;;;;;;17.60;44.40;95140.50;6130579;23;20791;-87
2023/03/23 09:29:25;;;;;;;2.65;1.90;;;;;;;17.58;44.01;95144.38;6131044;23;20176;-87
2023/03/23 09:31:51;;;;;;;3.42;2.00;;;;;;;17.54;43.13;95162.25;6130236;23;20175;-86
2023/03/23 09:34:18;;;;;;;3.17;2.20;;;;;;;17.47;43.42;95161.59;6131485;23;20250;-87
2023/03/23 09:36:46;;;;;;;2.30;2.10;;;;;;;17.47;43.61;95161.59;6130738;23;20199;-86
2023/03/23 09:39:13;;;;;;;3.55;2.35;;;;;;;17.34;44.05;95161.84;6131102;23;20206;-86
2023/03/23 09:42:16;;;;;;;2.88;2.63;;;;;;;17.29;44.19;95161.75;6130889;23;20183;-88
2023/03/23 09:45:00;;;;;;;4.15;2.30;;;;;;;17.31;44.18;95157.13;6132824;23;20169;-87
2023/03/23 09:47:36;;;;;;;2.47;2.28;;;;;;;17.46;44.28;95146.22;6132121;23;20205;-88
2023/03/23 09:50:09;;;;;;;2.55;2.35;;;;;;;17.54;44.04;95144.03;6131699;23;20170;-86
2023/03/23 09:52:45;;;;;;;2.60;2.40;;;;;;;17.72;44.25;95150.13;6131631;23;20163;-87
2023/03/23 09:55:18;;;;;;;4.15;2.58;;;;;;;17.85;44.46;95161.09;6131587;23;20170;-88
2023/03/23 09:57:51;;;;;;;3.40;2.30;;;;;;;17.92;44.20;95158.31;6131688;23;20199;-86
2023/03/23 10:00:24;;;;;;;8.63;2.60;;;;;;;18.09;43.58;95153.94;6133242;23;20166;-86
2023/03/23 10:03:01;;;;;;;4.07;2.60;;;;;;;18.23;43.33;95160.47;6130466;23;20159;-88
2023/03/23 10:05:32;;;;;;;3.53;2.60;;;;;;;18.30;43.15;95160.31;6131493;23;20242;-87
2023/03/23 10:08:01;;;;;;;3.80;3.35;;;;;;;18.34;43.59;95155.41;6132363;23;20247;-85
2023/03/23 10:10:38;;;;;;;7.45;3.45;;;;;;;18.23;43.11;95155.25;6132311;23;20197;-87
2023/03/23 10:13:16;;;;;;;4.53;2.60;;;;;;;18.24;43.57;95153.44;6133906;23;20219;-85
2023/03/23 10:15:44;;;;;;;4.05;2.28;;;;;;;18.27;43.67;95158.19;6134669;23;20164;-87
2023/03/23 10:18:16;;;;;;;4.43;2.70;;;;;;;18.18;43.36;95154.38;6135444;23;20286;-86
2023/03/23 10:20:48;;;;;;;3.90;2.33;;;;;;;18.11;42.44;95153.72;6134409;23;20195;-87
2023/03/23 10:23:36;;;;;;;2.53;2.33;;;;;;;18.01;41.61;95163.97;6133359;23;20163;-86
2023/03/23 10:26:08;;;;;;;3.08;2.20;;;;;;;17.95;41.61;95165.69;6134586;23;20183;-88
2023/03/23 10:28:38;;;;;;;2.40;2.08;;;;;;;17.98;40.97;95167.03;6136287;23;20199;-88
2023/03/23 10:31:09;;;;;;;2.38;2.00;;;;;;;18.05;41.58;95155.47;6134566;23;20234;-88
2023/03/23 10:33:42;;;;;;;3.47;2.10;;;;;;;18.07;41.42;95163.03;6134038;23;20172;-89
2023/03/23 10:36:14;;;;;;;2.00;1.80;;;;;;;17.95;40.35;95158.66;6134793;23;20164;-87
2023/03/23 10:38:47;;;;;;;1.85;1.75;;;;;;;17.89;40.06;95162.22;6132944;23;20196;-87
2023/03/23 10:41:17;;;;;;;2.65;2.05;;;;;;;17.94;39.98;95157.06;6132895;23;20217;-86
2023/03/23 10:43:49;;;;;;;2.75;2.35;;;;;;;17.98;39.98;95156.63;6133837;23;20183;-86
2023/03/23 10:46:27;;;;;;;4.20;2.28;;;;;;;17.93;39.85;95154.69;6132768;23;20221;-88
2023/03/23 10:48:56;;;;;;;2.33;2.13;;;;;;;17.92;39.85;95153.13;6132397;23;20199;-86
2023/03/23 10:51:28;;;;;;;3.10;2.22;;;;;;;17.95;39.68;95158.66;6133875;23;20235;-86
2023/03/23 10:54:01;;;;;;;2.60;2.15;;;;;;;18.02;40.24;95153.31;6133989;23;20593;-86
2023/03/23 10:56:29;;;;;;;2.30;2.10;;;;;;;18.05;40.11;95155.47;6132552;23;20174;-87
2023/03/23 10:58:56;;;;;;;4.13;2.70;;;;;;;18.05;40.41;95157.28;6133013;23;20206;-88
2023/03/23 11:01:31;;;;;;;3.55;2.50;;;;;;;18.11;40.24;95151.09;6133916;23;20190;-88
2023/03/23 11:04:00;;;;;;;3.08;2.30;;;;;;;18.13;40.76;95156.88;6130551;23;20191;-86
2023/03/23 11:06:31;;;;;;;2.97;2.50;;;;;;;18.22;40.53;95155.50;6131285;23;20179;-87
2023/03/23 11:09:03;;;;;;;2.75;2.55;;;;;;;18.20;40.63;95157.53;6131802;23;20206;-86
2023/03/23 11:11:37;;;;;;;2.95;2.67;;;;;;;18.11;40.64;95156.31;6129927;23;20183;-86
2023/03/23 11:14:16;;;;;;;4.07;2.80;;;;;;;18.22;40.79;95158.09;6130512;23;20163;-86
2023/03/23 11:16:46;;;;;;;2.72;2.53;;;;;;;18.30;40.94;95165.50;6129596;23;20170;-86
2023/03/23 11:19:14;;;;;;;2.70;2.40;;;;;;;18.32;40.70;95158.25;6129166;23;20912;-86
2023/03/23 11:21:48;;;;;;;4.03;2.40;;;;;;;18.30;40.84;95157.69;6128509;23;20511;-87
2023/03/23 11:24:16;;;;;;;2.45;2.25;;;;;;;18.37;40.83;95158.34;6130797;23;20704;-86
2023/03/23 11:26:45;;;;;;;2.72;2.42;;;;;;;18.35;40.97;95146.56;6129566;23;20184;-86
2023/03/23 11:29:15;;;;;;;2.90;2.60;;;;;;;18.38;40.71;95141.69;6130880;23;20543;-85
2023/03/23 11:31:44;;;;;;;3.65;2.55;;;;;;;18.40;40.90;95144.84;6129946;23;20692;-86
2023/03/23 11:34:15;;;;;;;3.20;2.60;;;;;;;18.45;40.89;95144.16;6129276;23;20190;-86
2023/03/23 11:36:48;;;;;;;4.00;2.45;;;;;;;18.53;40.97;95143.75;6129438;23;20164;-87
2023/03/23 11:39:25;;;;;;;3.05;2.65;;;;;;;18.50;40.75;95149.44;6127685;23;20199;-86
2023/03/23 11:41:52;;;;;;;2.63;2.38;;;;;;;18.41;40.62;95138.63;6129582;23;20191;-86
2023/03/23 11:44:18;;;;;;;2.88;2.60;;;;;;;18.39;40.74;95148.47;6130706;23;20282;-86